A4033 KBLV-KBLV
Flight info
| Callsign | A4033 |
|---|---|
| Flight time | 0h 34m |
| Altitude | 16000 |
| Route | LINDY9 ARG D0100 MOA LINDBERGH DIXIE3 |
| Aircraft | LJ35/L-DYRGS/S |
Departure
| Time | 2026-05-03 21:20 |
|---|---|
| Airport | Scott AFB/Midamerica Airport (KBLV) |
Arrival
| Time | 2026-05-03 21:54 |
|---|---|
| Airport | Scott AFB/Midamerica Airport (KBLV) |
| Time | Latitude | Longitude | Altitude | Speed | Heading |
|---|---|---|---|---|---|
| 2026-05-03 20:47 | 38.54427 | -89.84587 | 463 ft | 0 kts | 44° |
| 2026-05-03 20:48 | 38.54425 | -89.84590 | 463 ft | 0 kts | 44° |
| 2026-05-03 21:04 | 38.54426 | -89.84590 | 463 ft | 0 kts | 44° |
| 2026-05-03 21:05 | 38.54426 | -89.84589 | 463 ft | 0 kts | 44° |
| 2026-05-03 21:13 | 38.54427 | -89.84588 | 463 ft | 1 kts | 47° |
| 2026-05-03 21:13 | 38.54429 | -89.84584 | 463 ft | 2 kts | 61° |
| 2026-05-03 21:13 | 38.54420 | -89.84556 | 463 ft | 3 kts | 168° |
| 2026-05-03 21:13 | 38.54407 | -89.84553 | 463 ft | 1 kts | 168° |
| 2026-05-03 21:14 | 38.54392 | -89.84549 | 463 ft | 4 kts | 168° |
| 2026-05-03 21:14 | 38.54354 | -89.84530 | 463 ft | 8 kts | 144° |
| 2026-05-03 21:14 | 38.54291 | -89.84525 | 463 ft | 12 kts | 199° |
| 2026-05-03 21:14 | 38.54213 | -89.84590 | 463 ft | 16 kts | 220° |
| 2026-05-03 21:15 | 38.54123 | -89.84698 | 463 ft | 20 kts | 225° |
| 2026-05-03 21:15 | 38.54109 | -89.84715 | 463 ft | 3 kts | 225° |
| 2026-05-03 21:15 | 38.54085 | -89.84746 | 463 ft | 7 kts | 225° |
| 2026-05-03 21:15 | 38.54041 | -89.84804 | 463 ft | 11 kts | 225° |
| 2026-05-03 21:16 | 38.53974 | -89.84889 | 463 ft | 16 kts | 225° |
| 2026-05-03 21:16 | 38.53958 | -89.84906 | 463 ft | 3 kts | 193° |
| 2026-05-03 21:16 | 38.53933 | -89.84887 | 463 ft | 6 kts | 136° |
| 2026-05-03 21:16 | 38.53891 | -89.84835 | 463 ft | 11 kts | 136° |
| 2026-05-03 21:17 | 38.53828 | -89.84758 | 463 ft | 15 kts | 136° |
| 2026-05-03 21:17 | 38.53773 | -89.84690 | 463 ft | 18 kts | 136° |
| 2026-05-03 21:17 | 38.53636 | -89.84522 | 463 ft | 23 kts | 136° |
| 2026-05-03 21:17 | 38.53608 | -89.84488 | 463 ft | 2 kts | 136° |
| 2026-05-03 21:18 | 38.53586 | -89.84461 | 463 ft | 7 kts | 136° |
| 2026-05-03 21:18 | 38.53576 | -89.84405 | 463 ft | 9 kts | 32° |
| 2026-05-03 21:18 | 38.53624 | -89.84357 | 463 ft | 0 kts | 45° |
| 2026-05-03 21:18 | 38.53633 | -89.84346 | 463 ft | 4 kts | 33° |
| 2026-05-03 21:19 | 38.53661 | -89.84356 | 463 ft | 0 kts | 317° |
| 2026-05-03 21:19 | 38.53662 | -89.84358 | 463 ft | 1 kts | 317° |
| 2026-05-03 21:19 | 38.53700 | -89.84403 | 463 ft | 28 kts | 315° |
| 2026-05-03 21:19 | 38.54047 | -89.84828 | 463 ft | 114 kts | 316° |
| 2026-05-03 21:20 | 38.54825 | -89.85784 | 661 ft | 184 kts | 316° |
| 2026-05-03 21:20 | 38.55738 | -89.86890 | 2130 ft | 182 kts | 316° |
| 2026-05-03 21:20 | 38.56788 | -89.88141 | 2757 ft | 236 kts | 317° |
| 2026-05-03 21:20 | 38.57939 | -89.89491 | 3156 ft | 212 kts | 316° |
| 2026-05-03 21:21 | 38.58823 | -89.90854 | 3555 ft | 188 kts | 305° |
| 2026-05-03 21:21 | 38.59515 | -89.92193 | 3974 ft | 175 kts | 303° |
| 2026-05-03 21:21 | 38.60148 | -89.93499 | 4418 ft | 172 kts | 302° |
| 2026-05-03 21:21 | 38.60775 | -89.94823 | 4877 ft | 175 kts | 302° |
| 2026-05-03 21:22 | 38.61408 | -89.96167 | 5379 ft | 179 kts | 301° |
| 2026-05-03 21:22 | 38.62080 | -89.97565 | 5995 ft | 190 kts | 301° |
| 2026-05-03 21:22 | 38.62805 | -89.99008 | 6584 ft | 195 kts | 301° |
| 2026-05-03 21:22 | 38.63574 | -90.00460 | 6954 ft | 208 kts | 301° |
| 2026-05-03 21:23 | 38.64411 | -90.02015 | 6994 ft | 213 kts | 302° |
| 2026-05-03 21:23 | 38.65226 | -90.03586 | 6998 ft | 212 kts | 298° |
| 2026-05-03 21:23 | 38.65937 | -90.05162 | 7357 ft | 195 kts | 296° |
| 2026-05-03 21:23 | 38.66573 | -90.06663 | 7784 ft | 190 kts | 292° |
| 2026-05-03 21:24 | 38.66737 | -90.08331 | 8258 ft | 191 kts | 263° |
| 2026-05-03 21:24 | 38.66449 | -90.09929 | 9150 ft | 182 kts | 255° |
| 2026-05-03 21:24 | 38.66061 | -90.11503 | 9938 ft | 194 kts | 253° |
| 2026-05-03 21:24 | 38.65618 | -90.13204 | 10588 ft | 204 kts | 253° |
| 2026-05-03 21:25 | 38.65167 | -90.14914 | 11206 ft | 203 kts | 253° |
| 2026-05-03 21:25 | 38.64715 | -90.16621 | 11830 ft | 207 kts | 253° |
| 2026-05-03 21:25 | 38.64251 | -90.18370 | 12458 ft | 210 kts | 253° |
| 2026-05-03 21:25 | 38.63780 | -90.20150 | 13088 ft | 212 kts | 253° |
| 2026-05-03 21:26 | 38.63302 | -90.21956 | 13720 ft | 214 kts | 253° |
| 2026-05-03 21:26 | 38.62823 | -90.23766 | 14346 ft | 216 kts | 253° |
| 2026-05-03 21:26 | 38.62338 | -90.25600 | 14975 ft | 218 kts | 253° |
| 2026-05-03 21:26 | 38.61841 | -90.27448 | 15602 ft | 221 kts | 250° |
| 2026-05-03 21:27 | 38.61156 | -90.29226 | 16233 ft | 225 kts | 243° |
| 2026-05-03 21:27 | 38.60339 | -90.30979 | 16847 ft | 237 kts | 241° |
| 2026-05-03 21:27 | 38.59427 | -90.32851 | 16999 ft | 262 kts | 240° |
| 2026-05-03 21:27 | 38.58440 | -90.34854 | 17008 ft | 262 kts | 240° |
| 2026-05-03 21:28 | 38.57478 | -90.36794 | 17001 ft | 261 kts | 240° |
| 2026-05-03 21:28 | 38.56508 | -90.38746 | 17000 ft | 260 kts | 240° |
| 2026-05-03 21:28 | 38.55537 | -90.40698 | 17000 ft | 260 kts | 240° |
| 2026-05-03 21:28 | 38.54569 | -90.42644 | 17000 ft | 260 kts | 240° |
| 2026-05-03 21:29 | 38.53597 | -90.44599 | 17000 ft | 260 kts | 240° |
| 2026-05-03 21:29 | 38.52629 | -90.46548 | 17000 ft | 260 kts | 240° |
| 2026-05-03 21:29 | 38.51660 | -90.48499 | 17000 ft | 260 kts | 240° |
| 2026-05-03 21:29 | 38.50690 | -90.50454 | 17000 ft | 260 kts | 240° |
| 2026-05-03 21:30 | 38.49722 | -90.52404 | 17000 ft | 260 kts | 240° |
| 2026-05-03 21:30 | 38.48753 | -90.54358 | 17000 ft | 260 kts | 240° |
| 2026-05-03 21:30 | 38.47783 | -90.56316 | 17000 ft | 260 kts | 240° |
| 2026-05-03 21:30 | 38.46818 | -90.58265 | 17000 ft | 260 kts | 240° |
| 2026-05-03 21:31 | 38.45860 | -90.60199 | 17000 ft | 260 kts | 240° |
| 2026-05-03 21:31 | 38.44896 | -90.62147 | 17000 ft | 260 kts | 240° |
| 2026-05-03 21:31 | 38.43907 | -90.64080 | 16998 ft | 261 kts | 235° |
| 2026-05-03 21:31 | 38.42454 | -90.65493 | 16997 ft | 270 kts | 206° |
| 2026-05-03 21:32 | 38.40588 | -90.65935 | 17008 ft | 277 kts | 187° |
| 2026-05-03 21:32 | 38.38643 | -90.65875 | 17005 ft | 281 kts | 181° |
| 2026-05-03 21:32 | 38.36685 | -90.65641 | 17002 ft | 282 kts | 179° |
| 2026-05-03 21:32 | 38.34733 | -90.65350 | 17001 ft | 283 kts | 178° |
| 2026-05-03 21:33 | 38.32786 | -90.65038 | 17000 ft | 283 kts | 178° |
| 2026-05-03 21:33 | 38.30837 | -90.64719 | 17000 ft | 283 kts | 177° |
| 2026-05-03 21:33 | 38.28883 | -90.64397 | 17000 ft | 283 kts | 177° |
| 2026-05-03 21:33 | 38.26927 | -90.64074 | 17000 ft | 283 kts | 177° |
| 2026-05-03 21:34 | 38.24998 | -90.63755 | 17000 ft | 283 kts | 177° |
| 2026-05-03 21:34 | 38.23050 | -90.63432 | 17000 ft | 283 kts | 177° |
| 2026-05-03 21:34 | 38.21095 | -90.63109 | 17000 ft | 283 kts | 177° |
| 2026-05-03 21:34 | 38.19139 | -90.62785 | 17000 ft | 283 kts | 177° |
| 2026-05-03 21:35 | 38.17179 | -90.62461 | 17000 ft | 283 kts | 177° |
| 2026-05-03 21:35 | 38.15225 | -90.62138 | 17000 ft | 283 kts | 177° |
| 2026-05-03 21:35 | 38.13274 | -90.61815 | 17000 ft | 283 kts | 177° |
| 2026-05-03 21:35 | 38.11345 | -90.61494 | 17000 ft | 283 kts | 178° |
| 2026-05-03 21:36 | 38.09421 | -90.61677 | 16937 ft | 275 kts | 202° |
| 2026-05-03 21:36 | 38.07809 | -90.62944 | 16524 ft | 273 kts | 230° |
| 2026-05-03 21:36 | 38.06913 | -90.65001 | 16100 ft | 269 kts | 257° |
| 2026-05-03 21:36 | 38.06938 | -90.67343 | 15667 ft | 268 kts | 285° |
| 2026-05-03 21:37 | 38.07844 | -90.69393 | 15245 ft | 269 kts | 306° |
| 2026-05-03 21:37 | 38.09155 | -90.71102 | 14816 ft | 270 kts | 314° |
| 2026-05-03 21:37 | 38.10558 | -90.72630 | 14390 ft | 269 kts | 317° |
| 2026-05-03 21:37 | 38.12023 | -90.74118 | 13955 ft | 269 kts | 319° |
| 2026-05-03 21:38 | 38.13731 | -90.75110 | 13513 ft | 277 kts | 345° |
| 2026-05-03 21:38 | 38.15668 | -90.74937 | 13081 ft | 286 kts | 14° |
| 2026-05-03 21:38 | 38.17366 | -90.73595 | 12651 ft | 294 kts | 41° |
| 2026-05-03 21:38 | 38.18622 | -90.71532 | 12233 ft | 296 kts | 55° |
| 2026-05-03 21:39 | 38.19662 | -90.69267 | 11802 ft | 296 kts | 59° |
| 2026-05-03 21:39 | 38.20625 | -90.66946 | 11369 ft | 296 kts | 60° |
| 2026-05-03 21:39 | 38.21558 | -90.64611 | 10937 ft | 296 kts | 61° |
| 2026-05-03 21:39 | 38.22468 | -90.62305 | 10510 ft | 296 kts | 62° |
| 2026-05-03 21:40 | 38.23267 | -90.59890 | 10078 ft | 296 kts | 68° |
| 2026-05-03 21:40 | 38.23965 | -90.57420 | 9644 ft | 296 kts | 69° |
| 2026-05-03 21:40 | 38.24627 | -90.54940 | 9211 ft | 295 kts | 70° |
| 2026-05-03 21:40 | 38.25276 | -90.52465 | 8778 ft | 295 kts | 70° |
| 2026-05-03 21:41 | 38.25920 | -90.49989 | 8352 ft | 295 kts | 70° |
| 2026-05-03 21:41 | 38.26561 | -90.47518 | 7891 ft | 299 kts | 70° |
| 2026-05-03 21:41 | 38.27216 | -90.45011 | 7468 ft | 297 kts | 70° |
| 2026-05-03 21:41 | 38.27862 | -90.42534 | 7135 ft | 292 kts | 70° |
| 2026-05-03 21:42 | 38.28493 | -90.40114 | 6873 ft | 285 kts | 70° |
| 2026-05-03 21:42 | 38.29111 | -90.37740 | 6616 ft | 279 kts | 70° |
| 2026-05-03 21:42 | 38.29716 | -90.35416 | 6363 ft | 274 kts | 70° |
| 2026-05-03 21:42 | 38.30304 | -90.33128 | 6112 ft | 269 kts | 70° |
| 2026-05-03 21:43 | 38.30869 | -90.30898 | 5863 ft | 265 kts | 70° |
| 2026-05-03 21:43 | 38.31423 | -90.28684 | 5613 ft | 261 kts | 70° |
| 2026-05-03 21:43 | 38.31971 | -90.26482 | 5360 ft | 257 kts | 70° |
| 2026-05-03 21:43 | 38.32509 | -90.24325 | 5164 ft | 251 kts | 70° |
| 2026-05-03 21:44 | 38.33026 | -90.22259 | 5044 ft | 243 kts | 70° |
| 2026-05-03 21:44 | 38.33531 | -90.20248 | 5003 ft | 234 kts | 70° |
| 2026-05-03 21:44 | 38.34020 | -90.18301 | 4995 ft | 227 kts | 70° |
| 2026-05-03 21:44 | 38.34498 | -90.16400 | 4997 ft | 225 kts | 70° |
| 2026-05-03 21:45 | 38.34976 | -90.14498 | 4999 ft | 225 kts | 70° |
| 2026-05-03 21:45 | 38.35454 | -90.12598 | 5001 ft | 226 kts | 70° |
| 2026-05-03 21:45 | 38.35936 | -90.10686 | 5001 ft | 226 kts | 70° |
| 2026-05-03 21:45 | 38.36420 | -90.08768 | 5000 ft | 227 kts | 70° |
| 2026-05-03 21:46 | 38.36903 | -90.06866 | 5008 ft | 230 kts | 70° |
| 2026-05-03 21:46 | 38.37419 | -90.04850 | 4503 ft | 244 kts | 70° |
| 2026-05-03 21:46 | 38.37962 | -90.02779 | 4177 ft | 245 kts | 70° |
| 2026-05-03 21:46 | 38.38513 | -90.00737 | 3920 ft | 243 kts | 70° |
| 2026-05-03 21:47 | 38.39074 | -89.98711 | 3666 ft | 241 kts | 70° |
| 2026-05-03 21:47 | 38.39633 | -89.96736 | 3418 ft | 239 kts | 70° |
| 2026-05-03 21:47 | 38.40202 | -89.94744 | 3167 ft | 238 kts | 70° |
| 2026-05-03 21:47 | 38.40769 | -89.92765 | 2916 ft | 237 kts | 70° |
| 2026-05-03 21:48 | 38.41333 | -89.90799 | 2694 ft | 235 kts | 70° |
| 2026-05-03 21:48 | 38.41887 | -89.88870 | 2563 ft | 229 kts | 70° |
| 2026-05-03 21:48 | 38.42426 | -89.86992 | 2509 ft | 221 kts | 70° |
| 2026-05-03 21:48 | 38.42948 | -89.85178 | 2496 ft | 213 kts | 70° |
| 2026-05-03 21:49 | 38.43449 | -89.83438 | 2491 ft | 204 kts | 70° |
| 2026-05-03 21:49 | 38.43924 | -89.81787 | 2490 ft | 196 kts | 70° |
| 2026-05-03 21:49 | 38.44360 | -89.80276 | 2466 ft | 174 kts | 70° |
| 2026-05-03 21:49 | 38.44770 | -89.78854 | 2483 ft | 165 kts | 70° |
| 2026-05-03 21:50 | 38.45157 | -89.77512 | 2483 ft | 158 kts | 70° |
| 2026-05-03 21:50 | 38.45532 | -89.76213 | 2490 ft | 154 kts | 70° |
| 2026-05-03 21:50 | 38.45898 | -89.74945 | 2495 ft | 152 kts | 70° |
| 2026-05-03 21:50 | 38.46403 | -89.73779 | 2481 ft | 151 kts | 40° |
| 2026-05-03 21:51 | 38.47372 | -89.73449 | 2491 ft | 147 kts | 347° |
| 2026-05-03 21:51 | 38.48155 | -89.74215 | 2506 ft | 145 kts | 300° |
| 2026-05-03 21:51 | 38.48667 | -89.75346 | 2362 ft | 158 kts | 305° |
| 2026-05-03 21:51 | 38.49292 | -89.76534 | 2137 ft | 163 kts | 302° |
| 2026-05-03 21:52 | 38.49908 | -89.77825 | 1693 ft | 179 kts | 301° |
| 2026-05-03 21:52 | 38.50522 | -89.79281 | 1282 ft | 187 kts | 294° |
| 2026-05-03 21:52 | 38.50830 | -89.80270 | 1146 ft | 176 kts | 291° |
| 2026-05-03 21:52 | 38.51299 | -89.81647 | 1006 ft | 160 kts | 299° |
| 2026-05-03 21:53 | 38.51946 | -89.82728 | 900 ft | 150 kts | 315° |
| 2026-05-03 21:53 | 38.53023 | -89.83790 | 621 ft | 148 kts | 323° |
| 2026-05-03 21:53 | 38.53565 | -89.84320 | 595 ft | 145 kts | 321° |
| 2026-05-03 21:53 | 38.54292 | -89.85141 | 486 ft | 132 kts | 316° |
| 2026-05-03 21:54 | 38.54906 | -89.85888 | 463 ft | 89 kts | 318° |
| 2026-05-03 21:54 | 38.55041 | -89.86021 | 463 ft | 2 kts | 316° |
| 2026-05-03 21:54 | 38.55056 | -89.86040 | 463 ft | 6 kts | 314° |
| 2026-05-03 21:54 | 38.55103 | -89.86102 | 463 ft | 13 kts | 314° |
| 2026-05-03 21:55 | 38.55113 | -89.86225 | 463 ft | 19 kts | 209° |
| 2026-05-03 21:55 | 38.55033 | -89.86175 | 463 ft | 12 kts | 134° |
| 2026-05-03 21:55 | 38.54983 | -89.86116 | 463 ft | 8 kts | 142° |
| 2026-05-03 21:55 | 38.54961 | -89.86092 | 463 ft | 0 kts | 139° |